YHU weather

Montréal / Saint-Hubert Airport
Montréal, Quebec, Canada

Public forecast

Using degrees Celsius for public forecast. Weather courtesy of forecast.io.

Current aviation weather report (METAR) for Montréal / Saint-Hubert Airport

Retrieved 2019/10/15 10:00 UTC (21 minutes ago):

CYHU 151000Z AUTO 17006KT 9SM CLR 03/01 A3007 RMK SLP185

Aviation forecast (TAF) for Montréal / Saint-Hubert Airport

Retrieved 2019/10/15 06:42 UTC (4 hours ago):

TAF TAF CYHU 150538Z 1506/1606 25008KT P6SM SKC TEMPO 1509/1512 2SM BR FM151500 25010G20KT P6SM FEW040 SCT170 BECMG 1521/1523 23010KT BECMG 1600/1602 VRB03KT RMK FCST BASED ON AUTO OBS NXT FCST BY 151200Z